Aviation Digital Data Service (ADDS)

Output produced by METARs form (0741 UTC 20 November 2017)
found at http://aviationweather.gov/adds/metars/
 
KDFW 200653Z 20007KT 10SM BKN300 06/01 A3020 RMK AO2 SLP224 T00560011 $